Time;durP1;ratioP1;P1;durP2;ratioP2;P2;SDS_P1;SDS_P2;PMS_P1;PMS_P2;Temp;Humidity;BMP_temperature;BMP_pressure;BME280_temperature;BME280_humidity;BME280_pressure;Samples;Min_cycle;Max_cycle;Signal;HPM_P1;HPM_P2
2023/12/22 00:00:24;;;;;;;21.45;14.77;;;;;;;;;;6303936;28;20059;-74
2023/12/22 00:03:27;;;;;;;34.50;18.88;;;;;;;;;;6260937;28;20047;-75
2023/12/22 00:06:29;;;;;;;30.10;18.13;;;;;;;;;;6293322;28;20047;-75
2023/12/22 00:09:32;;;;;;;32.60;18.00;;;;;;;;;;6322057;28;20048;-74
2023/12/22 00:12:34;;;;;;;30.58;15.82;;;;;;;;;;6292361;28;20056;-75
2023/12/22 00:15:36;;;;;;;22.90;12.48;;;;;;;;;;6289133;28;20059;-74
2023/12/22 00:18:38;;;;;;;18.58;11.13;;;;;;;;;;6292269;28;20054;-75
2023/12/22 00:21:41;;;;;;;23.58;11.85;;;;;;;;;;6278990;28;20040;-75
2023/12/22 00:24:43;;;;;;;17.88;10.98;;;;;;;;;;6296949;28;20130;-75
2023/12/22 00:27:45;;;;;;;21.83;11.25;;;;;;;;;;6265089;28;20423;-74
2023/12/22 00:30:47;;;;;;;15.25;10.35;;;;;;;;;;6330276;28;20584;-75
2023/12/22 00:33:53;;;;;;;14.05;8.57;;;;;;;;;;6318970;28;20189;-75
2023/12/22 00:37:00;;;;;;;18.15;8.77;;;;;;;;;;6322083;28;20035;-74
2023/12/22 00:40:07;;;;;;;13.77;7.18;;;;;;;;;;6307265;28;20619;-75
2023/12/22 00:43:09;;;;;;;15.00;9.18;;;;;;;;;;6285134;28;20105;-75
2023/12/22 00:46:11;;;;;;;16.88;10.40;;;;;;;;;;6296663;28;20044;-75
2023/12/22 00:49:13;;;;;;;16.83;10.75;;;;;;;;;;6305660;28;20555;-74
2023/12/22 00:52:15;;;;;;;16.73;9.75;;;;;;;;;;6284599;28;20109;-75
2023/12/22 00:55:18;;;;;;;15.57;9.20;;;;;;;;;;6317593;28;20036;-75
2023/12/22 00:58:20;;;;;;;16.70;11.10;;;;;;;;;;6311325;28;20490;-75
2023/12/22 01:01:22;;;;;;;18.40;10.57;;;;;;;;;;6313402;28;20040;-75
2023/12/22 01:04:24;;;;;;;21.20;13.23;;;;;;;;;;6275884;28;20047;-75
2023/12/22 01:07:26;;;;;;;22.80;13.23;;;;;;;;;;6291959;28;20786;-74
2023/12/22 01:10:28;;;;;;;33.72;18.17;;;;;;;;;;6278731;28;20557;-75
2023/12/22 01:13:30;;;;;;;24.02;14.25;;;;;;;;;;6274945;28;20465;-75
2023/12/22 01:16:33;;;;;;;22.63;12.52;;;;;;;;;;6277624;28;20131;-74
2023/12/22 01:19:36;;;;;;;39.65;22.25;;;;;;;;;;6335536;27;20051;-75
2023/12/22 01:22:38;;;;;;;24.88;15.32;;;;;;;;;;6317284;28;20425;-74
2023/12/22 01:25:40;;;;;;;21.58;11.85;;;;;;;;;;6296566;28;20040;-75
2023/12/22 01:28:43;;;;;;;19.52;13.57;;;;;;;;;;6309383;28;20074;-75
2023/12/22 01:31:45;;;;;;;18.75;13.77;;;;;;;;;;6332965;27;20100;-75
2023/12/22 01:34:47;;;;;;;17.10;11.27;;;;;;;;;;6295353;28;20036;-75
2023/12/22 01:37:51;;;;;;;20.23;10.73;;;;;;;;;;6311292;28;20044;-75
2023/12/22 01:40:53;;;;;;;20.25;10.88;;;;;;;;;;6294671;28;20100;-74
2023/12/22 01:43:55;;;;;;;20.05;10.50;;;;;;;;;;6306673;28;20051;-74
2023/12/22 01:46:57;;;;;;;20.77;10.88;;;;;;;;;;6295565;28;20175;-74
2023/12/22 01:50:02;;;;;;;20.23;11.68;;;;;;;;;;6292225;28;20048;-74
2023/12/22 01:53:05;;;;;;;22.02;12.90;;;;;;;;;;6297008;28;20097;-75
2023/12/22 01:56:07;;;;;;;28.05;12.40;;;;;;;;;;6282274;28;20043;-75
2023/12/22 01:59:10;;;;;;;19.67;11.75;;;;;;;;;;6297081;28;20040;-74
2023/12/22 02:02:12;;;;;;;18.42;12.63;;;;;;;;;;6262527;28;20173;-75
2023/12/22 02:05:15;;;;;;;19.45;11.23;;;;;;;;;;6289709;28;20131;-74
2023/12/22 02:08:18;;;;;;;18.38;11.27;;;;;;;;;;6298172;28;20505;-75
2023/12/22 02:11:21;;;;;;;19.60;11.90;;;;;;;;;;6293604;28;20048;-75
2023/12/22 02:14:23;;;;;;;26.77;14.60;;;;;;;;;;6298684;28;20056;-75
2023/12/22 02:17:32;;;;;;;25.90;14.48;;;;;;;;;;6296782;28;20759;-74
2023/12/22 02:20:35;;;;;;;28.58;15.88;;;;;;;;;;6252292;28;20081;-74
2023/12/22 02:23:37;;;;;;;28.55;13.82;;;;;;;;;;6310558;28;20047;-74
2023/12/22 02:26:45;;;;;;;18.15;10.40;;;;;;;;;;6281559;28;20133;-74
2023/12/22 02:29:51;;;;;;;39.47;15.70;;;;;;;;;;6308957;28;20043;-74
2023/12/22 02:32:56;;;;;;;32.53;15.52;;;;;;;;;;6309701;28;20686;-74
2023/12/22 02:36:03;;;;;;;28.05;12.30;;;;;;;;;;6279615;28;20040;-74
2023/12/22 02:39:06;;;;;;;21.38;11.93;;;;;;;;;;6312938;28;20043;-74
2023/12/22 02:42:08;;;;;;;20.73;12.00;;;;;;;;;;6300485;28;20047;-74
2023/12/22 02:45:16;;;;;;;20.83;11.32;;;;;;;;;;6304621;28;20044;-74
2023/12/22 02:48:18;;;;;;;19.60;11.98;;;;;;;;;;6296085;28;20047;-74
2023/12/22 02:51:21;;;;;;;22.48;9.90;;;;;;;;;;6319008;28;20066;-74
2023/12/22 02:54:23;;;;;;;16.17;9.80;;;;;;;;;;6307264;28;20048;-74
2023/12/22 02:57:25;;;;;;;18.63;10.13;;;;;;;;;;6308122;28;20032;-74
2023/12/22 03:00:28;;;;;;;17.92;11.23;;;;;;;;;;6307423;28;20123;-74
2023/12/22 03:03:30;;;;;;;21.92;12.52;;;;;;;;;;6303232;28;20060;-75
2023/12/22 03:06:32;;;;;;;22.02;9.82;;;;;;;;;;6314154;28;20074;-74
2023/12/22 03:09:34;;;;;;;15.43;9.40;;;;;;;;;;6304000;28;20054;-74
2023/12/22 03:12:40;;;;;;;19.33;11.07;;;;;;;;;;6305731;28;20043;-74
2023/12/22 03:15:42;;;;;;;20.65;10.85;;;;;;;;;;6320476;28;20153;-75
2023/12/22 03:18:45;;;;;;;16.88;9.35;;;;;;;;;;6307635;28;20044;-74
2023/12/22 03:21:47;;;;;;;19.90;10.80;;;;;;;;;;6300995;28;20047;-75
2023/12/22 03:24:50;;;;;;;18.52;10.32;;;;;;;;;;6263081;28;20052;-75
2023/12/22 03:27:52;;;;;;;21.60;12.38;;;;;;;;;;6307284;28;20051;-75
2023/12/22 03:30:54;;;;;;;19.05;12.63;;;;;;;;;;6286693;28;20518;-75
2023/12/22 03:33:56;;;;;;;20.85;12.13;;;;;;;;;;6318588;28;20044;-75
2023/12/22 03:36:59;;;;;;;18.90;11.45;;;;;;;;;;6295182;28;20162;-74
2023/12/22 03:40:01;;;;;;;19.15;11.98;;;;;;;;;;6307300;28;20059;-74
2023/12/22 03:43:03;;;;;;;19.77;10.77;;;;;;;;;;6282298;28;20055;-74
2023/12/22 03:46:07;;;;;;;19.70;10.73;;;;;;;;;;6269731;28;20040;-74
2023/12/22 03:49:09;;;;;;;22.38;11.52;;;;;;;;;;6308274;28;20076;-74
2023/12/22 03:52:11;;;;;;;19.88;11.43;;;;;;;;;;6298631;28;20044;-74
2023/12/22 03:55:14;;;;;;;21.25;12.90;;;;;;;;;;6307956;28;20056;-74
2023/12/22 03:58:16;;;;;;;23.30;13.60;;;;;;;;;;6318252;28;20150;-74
2023/12/22 04:01:18;;;;;;;24.33;12.13;;;;;;;;;;6262303;28;20036;-75
2023/12/22 04:04:22;;;;;;;23.90;13.00;;;;;;;;;;6295590;28;20161;-74
2023/12/22 04:07:24;;;;;;;22.83;15.18;;;;;;;;;;6303281;28;20184;-74
2023/12/22 04:10:27;;;;;;;24.15;13.50;;;;;;;;;;6300671;28;20120;-74
2023/12/22 04:13:29;;;;;;;23.25;14.38;;;;;;;;;;6299404;28;20036;-74
2023/12/22 04:16:31;;;;;;;28.20;15.43;;;;;;;;;;6316482;28;20035;-75
2023/12/22 04:19:33;;;;;;;21.42;13.18;;;;;;;;;;6301463;28;20166;-75
2023/12/22 04:22:35;;;;;;;23.35;13.50;;;;;;;;;;6312125;28;20052;-74
2023/12/22 04:25:37;;;;;;;23.05;14.35;;;;;;;;;;6304716;28;20564;-75
2023/12/22 04:28:39;;;;;;;22.83;13.70;;;;;;;;;;6289709;28;20628;-74
2023/12/22 04:31:42;;;;;;;28.27;16.67;;;;;;;;;;6285168;28;20477;-74
2023/12/22 04:34:44;;;;;;;23.92;13.88;;;;;;;;;;6317732;28;20040;-74
2023/12/22 04:37:46;;;;;;;19.48;12.57;;;;;;;;;;6314334;28;20048;-74
2023/12/22 04:40:48;;;;;;;26.40;16.15;;;;;;;;;;6312056;28;20747;-74
2023/12/22 04:43:50;;;;;;;22.85;17.08;;;;;;;;;;6314552;28;20069;-74
2023/12/22 04:46:53;;;;;;;19.80;12.77;;;;;;;;;;6315911;28;20473;-74
2023/12/22 04:49:55;;;;;;;30.23;18.08;;;;;;;;;;6301150;28;20042;-74
2023/12/22 04:52:57;;;;;;;28.00;15.27;;;;;;;;;;6316216;28;20534;-74
2023/12/22 04:55:59;;;;;;;30.52;16.17;;;;;;;;;;6306584;28;20416;-74
2023/12/22 04:59:02;;;;;;;29.67;16.83;;;;;;;;;;6313575;28;20046;-74
2023/12/22 05:02:04;;;;;;;23.90;13.52;;;;;;;;;;6320242;28;20048;-74
2023/12/22 05:05:08;;;;;;;33.15;16.73;;;;;;;;;;6310661;28;20127;-74
2023/12/22 05:08:10;;;;;;;25.75;14.40;;;;;;;;;;6293854;28;20032;-75
2023/12/22 05:11:12;;;;;;;21.63;12.30;;;;;;;;;;6290260;28;20097;-74
2023/12/22 05:14:14;;;;;;;22.45;12.05;;;;;;;;;;6299093;28;20047;-74
2023/12/22 05:17:17;;;;;;;22.23;12.60;;;;;;;;;;6273506;28;20078;-74
2023/12/22 05:20:19;;;;;;;19.10;10.73;;;;;;;;;;6317222;28;20044;-74
2023/12/22 05:23:21;;;;;;;22.77;13.68;;;;;;;;;;6292628;28;20053;-74
2023/12/22 05:26:23;;;;;;;25.50;16.23;;;;;;;;;;6286971;28;20094;-75
2023/12/22 05:29:25;;;;;;;25.73;14.65;;;;;;;;;;6313923;28;20040;-76
2023/12/22 05:32:27;;;;;;;25.70;14.43;;;;;;;;;;6313440;28;20044;-76
2023/12/22 05:35:30;;;;;;;20.98;11.50;;;;;;;;;;6290679;28;20071;-76
2023/12/22 05:38:37;;;;;;;24.23;13.25;;;;;;;;;;6328084;27;20044;-76
2023/12/22 05:41:39;;;;;;;21.25;11.93;;;;;;;;;;6292005;28;20055;-75
2023/12/22 05:44:41;;;;;;;21.65;12.43;;;;;;;;;;6274741;28;20125;-75
2023/12/22 05:47:46;;;;;;;19.92;11.98;;;;;;;;;;6269898;28;20054;-76
2023/12/22 05:50:48;;;;;;;20.58;11.35;;;;;;;;;;6288760;28;20043;-75
2023/12/22 05:53:53;;;;;;;27.40;12.98;;;;;;;;;;6289180;28;20118;-75
2023/12/22 05:56:55;;;;;;;23.38;13.57;;;;;;;;;;6260384;28;20036;-76
2023/12/22 05:59:59;;;;;;;25.05;14.50;;;;;;;;;;6285545;28;20032;-75
2023/12/22 06:03:02;;;;;;;36.47;23.15;;;;;;;;;;6287366;28;21267;-75
2023/12/22 06:06:04;;;;;;;30.90;20.42;;;;;;;;;;6312224;28;20564;-75
2023/12/22 06:09:07;;;;;;;28.20;17.60;;;;;;;;;;6293498;28;20074;-75
2023/12/22 06:12:10;;;;;;;29.95;18.05;;;;;;;;;;6320798;28;20442;-75
2023/12/22 06:15:16;;;;;;;26.98;13.00;;;;;;;;;;6305549;28;20123;-74
2023/12/22 06:18:18;;;;;;;40.30;20.40;;;;;;;;;;6292358;28;20129;-75
2023/12/22 06:21:20;;;;;;;28.63;14.93;;;;;;;;;;6294957;28;20131;-75
2023/12/22 06:24:23;;;;;;;33.63;18.35;;;;;;;;;;6281383;28;20048;-75
2023/12/22 06:27:25;;;;;;;39.25;18.50;;;;;;;;;;6287754;28;20055;-74
2023/12/22 06:30:27;;;;;;;18.85;11.35;;;;;;;;;;6282419;28;20044;-74
2023/12/22 06:33:30;;;;;;;18.70;10.63;;;;;;;;;;6275300;28;20036;-74
2023/12/22 06:36:32;;;;;;;24.50;14.23;;;;;;;;;;6300834;28;20040;-74
2023/12/22 06:39:34;;;;;;;27.67;12.18;;;;;;;;;;6295153;28;20776;-74
2023/12/22 06:42:36;;;;;;;19.45;12.80;;;;;;;;;;6260014;28;20097;-74
2023/12/22 06:45:39;;;;;;;25.50;15.82;;;;;;;;;;6317471;28;20189;-75
2023/12/22 06:48:41;;;;;;;19.05;11.90;;;;;;;;;;6315028;28;20059;-74
2023/12/22 06:51:44;;;;;;;20.00;13.90;;;;;;;;;;6323325;28;20131;-74
2023/12/22 06:54:47;;;;;;;26.63;13.57;;;;;;;;;;6308497;28;20052;-74
2023/12/22 06:57:49;;;;;;;20.77;12.40;;;;;;;;;;6302643;28;20027;-74
2023/12/22 07:00:51;;;;;;;33.88;21.25;;;;;;;;;;6321154;28;20558;-75
2023/12/22 07:03:54;;;;;;;22.63;13.00;;;;;;;;;;6311346;28;20054;-74
2023/12/22 07:06:56;;;;;;;19.08;10.10;;;;;;;;;;6301800;28;20527;-75
2023/12/22 07:09:58;;;;;;;21.17;11.75;;;;;;;;;;6315484;28;20614;-74
2023/12/22 07:13:00;;;;;;;19.95;12.30;;;;;;;;;;6304767;28;20202;-74
2023/12/22 07:16:04;;;;;;;19.70;12.15;;;;;;;;;;6314305;28;20036;-74
2023/12/22 07:19:06;;;;;;;30.10;14.57;;;;;;;;;;6280491;28;20131;-74
2023/12/22 07:22:08;;;;;;;25.40;14.65;;;;;;;;;;6277861;28;20148;-74
2023/12/22 07:25:10;;;;;;;24.08;15.07;;;;;;;;;;6294351;28;20051;-75
2023/12/22 07:28:15;;;;;;;53.58;27.63;;;;;;;;;;6314402;28;20055;-75
2023/12/22 07:31:18;;;;;;;30.27;19.67;;;;;;;;;;6265576;28;20832;-74
2023/12/22 07:34:22;;;;;;;25.48;15.50;;;;;;;;;;6288955;28;20044;-74
2023/12/22 07:37:24;;;;;;;33.20;20.35;;;;;;;;;;6298693;28;20048;-75
2023/12/22 07:40:29;;;;;;;23.80;12.63;;;;;;;;;;6295867;28;20048;-74
2023/12/22 07:43:31;;;;;;;19.52;13.23;;;;;;;;;;6319791;28;20054;-74
2023/12/22 07:46:35;;;;;;;21.70;12.07;;;;;;;;;;6285949;28;20533;-74
2023/12/22 07:49:37;;;;;;;23.58;11.93;;;;;;;;;;6305915;28;20062;-74
2023/12/22 07:52:39;;;;;;;23.08;11.77;;;;;;;;;;6299827;28;20056;-74
2023/12/22 07:55:44;;;;;;;21.75;10.55;;;;;;;;;;6295863;28;20094;-74
2023/12/22 07:58:46;;;;;;;22.42;11.65;;;;;;;;;;6286099;28;20048;-74
2023/12/22 08:01:48;;;;;;;20.35;12.35;;;;;;;;;;6284125;28;20051;-75
2023/12/22 08:04:50;;;;;;;28.30;11.52;;;;;;;;;;6313333;28;20051;-74
2023/12/22 08:07:52;;;;;;;24.17;11.75;;;;;;;;;;6319959;28;20881;-74
2023/12/22 08:10:54;;;;;;;25.73;11.10;;;;;;;;;;6312275;28;20047;-74
2023/12/22 08:13:57;;;;;;;23.55;12.57;;;;;;;;;;6305234;28;20527;-75
2023/12/22 08:17:00;;;;;;;20.20;11.77;;;;;;;;;;6313204;28;20043;-75
2023/12/22 08:20:08;;;;;;;19.17;11.75;;;;;;;;;;6291355;28;20040;-74
2023/12/22 08:23:21;;;;;;;28.77;14.50;;;;;;;;;;6305120;28;20048;-74
2023/12/22 08:26:25;;;;;;;36.20;16.70;;;;;;;;;;6295553;28;20047;-74
2023/12/22 08:29:28;;;;;;;40.92;23.42;;;;;;;;;;6295693;28;20565;-74
2023/12/22 08:32:30;;;;;;;77.25;38.35;;;;;;;;;;6324288;28;20052;-74
2023/12/22 08:35:32;;;;;;;47.30;27.98;;;;;;;;;;6275634;28;20554;-74
2023/12/22 08:38:34;;;;;;;52.78;29.60;;;;;;;;;;6314866;28;20160;-74
2023/12/22 08:41:37;;;;;;;82.82;34.65;;;;;;;;;;6314883;28;20055;-75
2023/12/22 08:44:40;;;;;;;55.88;25.77;;;;;;;;;;6295540;28;20047;-74
2023/12/22 08:47:42;;;;;;;35.30;20.85;;;;;;;;;;6311041;28;20592;-73
2023/12/22 08:50:48;;;;;;;45.00;24.00;;;;;;;;;;6298017;28;20592;-73
2023/12/22 08:53:50;;;;;;;49.22;25.08;;;;;;;;;;6313776;28;20092;-72
2023/12/22 08:56:52;;;;;;;46.17;23.60;;;;;;;;;;6300126;28;20086;-73
2023/12/22 08:59:55;;;;;;;50.95;26.13;;;;;;;;;;6267125;28;20443;-73
2023/12/22 09:02:57;;;;;;;45.33;24.33;;;;;;;;;;6314348;28;20538;-72
2023/12/22 09:06:00;;;;;;;34.53;19.35;;;;;;;;;;6316012;28;20059;-74
2023/12/22 09:09:10;;;;;;;36.42;24.67;;;;;;;;;;6319435;28;20118;-74
2023/12/22 09:12:12;;;;;;;41.60;25.25;;;;;;;;;;6301584;28;20063;-75
2023/12/22 09:15:14;;;;;;;42.95;22.88;;;;;;;;;;6315903;28;20862;-74
2023/12/22 09:18:16;;;;;;;47.95;27.20;;;;;;;;;;6278576;28;20040;-74
2023/12/22 09:21:18;;;;;;;95.63;42.47;;;;;;;;;;6281766;28;20522;-73
2023/12/22 09:24:21;;;;;;;79.18;37.70;;;;;;;;;;6303428;28;20121;-73
2023/12/22 09:27:23;;;;;;;75.45;36.05;;;;;;;;;;6295217;28;20056;-73
2023/12/22 09:30:24;;;;;;;65.78;31.88;;;;;;;;;;6308824;28;20071;-73
2023/12/22 09:33:26;;;;;;;59.47;29.42;;;;;;;;;;6283433;28;20052;-74
2023/12/22 09:36:29;;;;;;;43.92;24.45;;;;;;;;;;6327065;27;20036;-73
2023/12/22 09:39:31;;;;;;;42.42;25.92;;;;;;;;;;6307853;28;20040;-73
2023/12/22 09:42:33;;;;;;;53.05;35.65;;;;;;;;;;6294919;28;21259;-73
2023/12/22 09:45:37;;;;;;;47.92;32.10;;;;;;;;;;6314825;28;20593;-73
2023/12/22 09:48:39;;;;;;;81.30;51.50;;;;;;;;;;6297928;28;20550;-73
2023/12/22 09:51:43;;;;;;;77.43;45.95;;;;;;;;;;6297352;28;20052;-74
2023/12/22 09:54:46;;;;;;;78.90;46.00;;;;;;;;;;6274670;28;20074;-73
2023/12/22 09:57:49;;;;;;;46.10;28.17;;;;;;;;;;6306123;28;20052;-74
2023/12/22 10:00:53;;;;;;;54.85;36.35;;;;;;;;;;6317092;28;20051;-73
2023/12/22 10:03:56;;;;;;;42.38;24.92;;;;;;;;;;6300528;28;20040;-74
2023/12/22 10:07:00;;;;;;;41.75;23.50;;;;;;;;;;6292270;28;20040;-73
2023/12/22 10:10:03;;;;;;;40.28;24.92;;;;;;;;;;6288455;28;20054;-73
2023/12/22 10:13:09;;;;;;;35.88;21.10;;;;;;;;;;6293173;28;20125;-73
2023/12/22 10:16:11;;;;;;;32.83;20.88;;;;;;;;;;6326385;28;20040;-74
2023/12/22 10:19:14;;;;;;;37.30;23.63;;;;;;;;;;6326341;28;20907;-74
2023/12/22 10:22:17;;;;;;;44.47;27.85;;;;;;;;;;6266037;28;20078;-72
2023/12/22 10:25:22;;;;;;;40.17;25.65;;;;;;;;;;6300236;28;20111;-72
2023/12/22 10:28:27;;;;;;;46.42;28.83;;;;;;;;;;6298379;28;20065;-72
2023/12/22 10:31:39;;;;;;;32.70;22.27;;;;;;;;;;6294134;28;20580;-73
2023/12/22 10:34:42;;;;;;;36.70;20.27;;;;;;;;;;6293729;28;20089;-73
2023/12/22 10:37:45;;;;;;;43.92;24.98;;;;;;;;;;6293032;28;20066;-73
2023/12/22 10:40:48;;;;;;;40.83;23.48;;;;;;;;;;6317587;28;20116;-73
2023/12/22 10:43:51;;;;;;;38.25;21.95;;;;;;;;;;6303727;28;20111;-74
2023/12/22 10:46:54;;;;;;;33.38;19.75;;;;;;;;;;6315709;28;20048;-73
2023/12/22 10:49:56;;;;;;;31.60;18.08;;;;;;;;;;6284742;28;20676;-74
2023/12/22 10:52:59;;;;;;;24.23;15.55;;;;;;;;;;6306364;28;20052;-73
2023/12/22 10:56:01;;;;;;;25.25;15.07;;;;;;;;;;6320641;28;20182;-73
2023/12/22 10:59:04;;;;;;;21.05;13.48;;;;;;;;;;6280473;28;20043;-73
2023/12/22 11:02:08;;;;;;;20.65;13.65;;;;;;;;;;6320180;28;20047;-73
2023/12/22 11:05:12;;;;;;;22.80;14.60;;;;;;;;;;6294750;28;20036;-74
2023/12/22 11:08:15;;;;;;;23.75;15.23;;;;;;;;;;6311649;28;20085;-73
2023/12/22 11:11:29;;;;;;;23.30;15.02;;;;;;;;;;6289489;28;20083;-73
2023/12/22 11:14:32;;;;;;;26.90;15.35;;;;;;;;;;6323380;28;20097;-73
2023/12/22 11:17:35;;;;;;;23.95;15.63;;;;;;;;;;6305006;28;20569;-73
2023/12/22 11:20:38;;;;;;;22.55;14.05;;;;;;;;;;6295743;28;20055;-73
2023/12/22 11:23:41;;;;;;;23.45;16.42;;;;;;;;;;6305844;28;20051;-73
2023/12/22 11:26:45;;;;;;;13.40;8.55;;;;;;;;;;6283953;28;20075;-73
2023/12/22 11:29:50;;;;;;;8.77;6.20;;;;;;;;;;6286736;28;20048;-74
2023/12/22 11:32:53;;;;;;;7.68;5.75;;;;;;;;;;6332091;27;20435;-73
2023/12/22 11:35:56;;;;;;;11.20;5.13;;;;;;;;;;6301378;28;20039;-74
2023/12/22 11:38:59;;;;;;;6.15;3.75;;;;;;;;;;6288450;28;20200;-73
2023/12/22 11:42:03;;;;;;;7.43;4.68;;;;;;;;;;6289396;28;20055;-73
2023/12/22 11:45:06;;;;;;;6.00;3.58;;;;;;;;;;6313015;28;20127;-73
2023/12/22 11:48:09;;;;;;;8.25;6.05;;;;;;;;;;6297551;28;20788;-73
2023/12/22 11:51:15;;;;;;;6.30;3.88;;;;;;;;;;6307008;28;20075;-74
2023/12/22 11:54:51;;;;;;;3.88;2.38;;;;;;;;;;6295905;28;20078;-73
2023/12/22 11:57:56;;;;;;;12.75;7.97;;;;;;;;;;6301099;28;20036;-73
2023/12/22 12:01:06;;;;;;;4.45;2.13;;;;;;;;;;6318521;28;20798;-73
2023/12/22 12:04:09;;;;;;;4.53;3.10;;;;;;;;;;6288326;28;20043;-73
2023/12/22 12:07:45;;;;;;;5.30;3.53;;;;;;;;;;6329380;28;20055;-73
2023/12/22 12:10:55;;;;;;;6.20;4.03;;;;;;;;;;6303304;28;20128;-73
2023/12/22 12:14:11;;;;;;;4.28;2.83;;;;;;;;;;6310766;28;20178;-73
2023/12/22 12:17:16;;;;;;;7.65;4.00;;;;;;;;;;6304925;28;20221;-73
2023/12/22 12:20:18;;;;;;;4.25;2.35;;;;;;;;;;6300437;28;20047;-74
2023/12/22 12:23:26;;;;;;;4.95;3.15;;;;;;;;;;6299239;28;20063;-73
2023/12/22 12:26:29;;;;;;;7.55;3.05;;;;;;;;;;6263557;28;20055;-73
2023/12/22 12:29:36;;;;;;;5.03;4.40;;;;;;;;;;6287048;28;20824;-73
2023/12/22 12:32:39;;;;;;;6.03;3.47;;;;;;;;;;6303678;28;20109;-73
2023/12/22 12:35:43;;;;;;;6.35;3.75;;;;;;;;;;6280812;28;20055;-73
2023/12/22 12:39:01;;;;;;;9.55;5.60;;;;;;;;;;6303590;28;20059;-73
2023/12/22 12:42:07;;;;;;;9.40;5.40;;;;;;;;;;6290482;28;20041;-73
2023/12/22 12:45:09;;;;;;;10.55;6.00;;;;;;;;;;6283661;28;20040;-72
2023/12/22 12:48:16;;;;;;;13.35;7.50;;;;;;;;;;6310111;28;20058;-72
2023/12/22 12:51:19;;;;;;;6.95;4.45;;;;;;;;;;6328174;27;20753;-73
2023/12/22 12:54:21;;;;;;;7.78;5.40;;;;;;;;;;6302165;28;20541;-73
2023/12/22 12:57:23;;;;;;;7.35;5.15;;;;;;;;;;6297035;28;20104;-73
2023/12/22 13:00:35;;;;;;;6.80;4.63;;;;;;;;;;6296966;28;20052;-73
2023/12/22 13:03:53;;;;;;;10.05;6.22;;;;;;;;;;6327361;28;20044;-73
2023/12/22 13:06:58;;;;;;;6.43;4.47;;;;;;;;;;6283312;28;20048;-73
2023/12/22 13:10:01;;;;;;;6.72;3.78;;;;;;;;;;6302316;28;20683;-73
2023/12/22 13:13:03;;;;;;;6.78;4.40;;;;;;;;;;6294610;28;20082;-72
2023/12/22 13:16:12;;;;;;;6.75;4.10;;;;;;;;;;6325756;28;20055;-72
2023/12/22 13:19:16;;;;;;;8.98;5.45;;;;;;;;;;6312770;28;20889;-72
2023/12/22 13:22:18;;;;;;;6.07;4.03;;;;;;;;;;6297534;28;20051;-72
2023/12/22 13:25:21;;;;;;;17.42;8.30;;;;;;;;;;6292629;28;20044;-72
2023/12/22 13:28:28;;;;;;;23.98;11.20;;;;;;;;;;6296559;28;20048;-73
2023/12/22 13:31:32;;;;;;;16.83;10.48;;;;;;;;;;6314786;28;20111;-73
2023/12/22 13:34:35;;;;;;;23.27;11.73;;;;;;;;;;6314685;28;20044;-73
2023/12/22 13:37:41;;;;;;;22.45;12.35;;;;;;;;;;6316305;28;20553;-73
2023/12/22 13:40:46;;;;;;;26.20;11.63;;;;;;;;;;6300911;28;20059;-73
2023/12/22 13:43:48;;;;;;;;;;;;;;;;;;6313053;28;20048;-72
2023/12/22 13:46:50;;;;;;;19.52;9.88;;;;;;;;;;6315114;28;20323;-73
2023/12/22 13:49:54;;;;;;;11.38;7.18;;;;;;;;;;6284933;28;20048;-73
2023/12/22 13:52:56;;;;;;;13.68;8.60;;;;;;;;;;6288300;28;20578;-74
2023/12/22 13:55:59;;;;;;;15.88;8.73;;;;;;;;;;6302049;28;20142;-73
2023/12/22 13:59:01;;;;;;;13.27;7.53;;;;;;;;;;6294850;28;20102;-73
2023/12/22 14:02:04;;;;;;;8.43;7.15;;;;;;;;;;6332502;27;20051;-72
2023/12/22 14:05:06;;;;;;;11.13;7.90;;;;;;;;;;6318420;28;20046;-72
2023/12/22 14:08:08;;;;;;;10.68;7.07;;;;;;;;;;6318828;28;20126;-74
2023/12/22 14:11:11;;;;;;;10.05;6.88;;;;;;;;;;6290555;28;20055;-72
2023/12/22 14:14:14;;;;;;;7.38;4.70;;;;;;;;;;6278128;28;20047;-72
2023/12/22 14:17:19;;;;;;;9.05;4.97;;;;;;;;;;6293566;28;20066;-73
2023/12/22 14:20:22;;;;;;;8.05;5.57;;;;;;;;;;6274973;28;20039;-74
2023/12/22 14:23:24;;;;;;;9.57;5.35;;;;;;;;;;6315966;28;20193;-73
2023/12/22 14:26:26;;;;;;;8.35;5.32;;;;;;;;;;6259012;28;20040;-73
2023/12/22 14:29:29;;;;;;;7.70;4.93;;;;;;;;;;6307091;28;20040;-73
2023/12/22 14:32:31;;;;;;;9.27;4.55;;;;;;;;;;6292146;28;20047;-74
2023/12/22 14:35:33;;;;;;;8.85;6.10;;;;;;;;;;6321027;28;20866;-72
2023/12/22 14:38:35;;;;;;;16.17;9.05;;;;;;;;;;6274723;28;20109;-74
2023/12/22 14:41:39;;;;;;;8.77;5.72;;;;;;;;;;6309805;28;20048;-75
2023/12/22 14:44:44;;;;;;;12.10;8.15;;;;;;;;;;6309005;28;20052;-74
2023/12/22 14:47:47;;;;;;;17.20;10.27;;;;;;;;;;6315543;28;20044;-73
2023/12/22 14:50:50;;;;;;;10.75;7.28;;;;;;;;;;6318406;28;20078;-73
2023/12/22 14:53:52;;;;;;;26.60;13.63;;;;;;;;;;6314038;28;20193;-74
2023/12/22 14:56:55;;;;;;;11.43;6.88;;;;;;;;;;6296642;28;20036;-73
2023/12/22 14:59:58;;;;;;;9.75;5.80;;;;;;;;;;6304000;28;20078;-74
2023/12/22 15:03:00;;;;;;;14.23;8.68;;;;;;;;;;6325076;28;20047;-72
2023/12/22 15:06:03;;;;;;;38.45;21.40;;;;;;;;;;6304740;28;20043;-73
2023/12/22 15:09:06;;;;;;;27.75;15.73;;;;;;;;;;6322363;28;20043;-73
2023/12/22 15:12:09;;;;;;;49.80;23.67;;;;;;;;;;6287460;28;20157;-73
2023/12/22 15:15:11;;;;;;;42.47;23.05;;;;;;;;;;6310382;28;20086;-73
2023/12/22 15:18:13;;;;;;;43.28;19.65;;;;;;;;;;6298876;28;20268;-73
2023/12/22 15:21:22;;;;;;;53.75;23.10;;;;;;;;;;6316560;28;20051;-72
2023/12/22 15:24:26;;;;;;;34.10;13.82;;;;;;;;;;6297568;28;20036;-72
2023/12/22 15:27:28;;;;;;;15.60;8.82;;;;;;;;;;6313446;28;20058;-72
2023/12/22 15:30:30;;;;;;;18.58;9.75;;;;;;;;;;6283135;28;20040;-72
2023/12/22 15:33:32;;;;;;;12.85;8.23;;;;;;;;;;6294154;28;20044;-72
2023/12/22 15:36:34;;;;;;;15.82;8.18;;;;;;;;;;6310274;28;20145;-72
2023/12/22 15:39:37;;;;;;;8.38;5.22;;;;;;;;;;6315512;28;20047;-73
2023/12/22 15:42:39;;;;;;;7.40;5.07;;;;;;;;;;6313285;28;20051;-73
2023/12/22 15:45:41;;;;;;;13.35;8.73;;;;;;;;;;6295517;28;20063;-73
2023/12/22 15:48:44;;;;;;;15.88;8.82;;;;;;;;;;6310434;28;20040;-73
2023/12/22 15:51:46;;;;;;;8.07;4.78;;;;;;;;;;6315023;28;20047;-73
2023/12/22 15:54:48;;;;;;;9.15;5.93;;;;;;;;;;6282661;28;20052;-73
2023/12/22 15:57:50;;;;;;;12.15;7.75;;;;;;;;;;6279530;28;20040;-72
2023/12/22 16:00:52;;;;;;;9.30;7.50;;;;;;;;;;6292849;28;20044;-73
2023/12/22 16:03:57;;;;;;;19.88;12.82;;;;;;;;;;6315960;28;20056;-72
2023/12/22 16:06:59;;;;;;;13.13;9.50;;;;;;;;;;6312304;28;20639;-72
2023/12/22 16:10:02;;;;;;;19.48;10.02;;;;;;;;;;6306331;28;20135;-72
2023/12/22 16:13:06;;;;;;;14.85;10.10;;;;;;;;;;6312410;28;20105;-72
2023/12/22 16:16:13;;;;;;;13.77;8.15;;;;;;;;;;6312509;28;20135;-73
2023/12/22 16:19:16;;;;;;;12.57;8.40;;;;;;;;;;6315300;28;20072;-74
2023/12/22 16:22:18;;;;;;;13.48;7.50;;;;;;;;;;6315076;28;20069;-72
2023/12/22 16:25:20;;;;;;;15.50;9.60;;;;;;;;;;6311293;28;20051;-72
2023/12/22 16:28:23;;;;;;;11.85;7.20;;;;;;;;;;6292248;28;20052;-72
2023/12/22 16:31:25;;;;;;;17.02;10.73;;;;;;;;;;6305307;28;20047;-72
2023/12/22 16:34:27;;;;;;;33.35;16.77;;;;;;;;;;6294150;28;20052;-72
2023/12/22 16:37:29;;;;;;;13.55;7.82;;;;;;;;;;6310573;28;20040;-72
2023/12/22 16:40:32;;;;;;;20.92;12.07;;;;;;;;;;6292230;28;20040;-73
2023/12/22 16:43:34;;;;;;;17.20;10.35;;;;;;;;;;6292514;28;20498;-73
2023/12/22 16:46:37;;;;;;;17.02;10.95;;;;;;;;;;6295950;28;20059;-72
2023/12/22 16:49:40;;;;;;;19.40;13.63;;;;;;;;;;6312923;28;20048;-72
2023/12/22 16:52:43;;;;;;;16.67;11.57;;;;;;;;;;6292649;28;20059;-73
2023/12/22 16:55:45;;;;;;;22.13;12.60;;;;;;;;;;6311171;28;20438;-72
2023/12/22 16:58:47;;;;;;;14.10;9.25;;;;;;;;;;6292198;28;20070;-72
2023/12/22 17:01:49;;;;;;;13.57;8.25;;;;;;;;;;6269699;28;20155;-72
2023/12/22 17:05:12;;;;;;;20.58;11.55;;;;;;;;;;6295544;28;20047;-73
2023/12/22 17:08:15;;;;;;;17.88;11.50;;;;;;;;;;6309361;28;20052;-72
2023/12/22 17:11:18;;;;;;;17.92;10.52;;;;;;;;;;6318918;28;20052;-72
2023/12/22 17:14:20;;;;;;;14.82;9.93;;;;;;;;;;6297199;28;20072;-72
2023/12/22 17:17:22;;;;;;;18.13;11.93;;;;;;;;;;6319954;28;20142;-73
2023/12/22 17:20:26;;;;;;;16.80;9.25;;;;;;;;;;6309679;28;20055;-72
2023/12/22 17:23:28;;;;;;;13.38;8.57;;;;;;;;;;6310980;28;20090;-72
2023/12/22 17:26:31;;;;;;;19.38;11.77;;;;;;;;;;6292584;28;20535;-72
2023/12/22 17:29:34;;;;;;;17.58;10.07;;;;;;;;;;6312019;28;20040;-73
2023/12/22 17:32:36;;;;;;;42.00;19.85;;;;;;;;;;6288126;28;20172;-72
2023/12/22 17:35:38;;;;;;;31.08;16.42;;;;;;;;;;6280540;28;20581;-73
2023/12/22 17:38:40;;;;;;;29.05;17.58;;;;;;;;;;6311847;28;20051;-72
2023/12/22 17:41:43;;;;;;;19.98;12.35;;;;;;;;;;6303310;28;20671;-73
2023/12/22 17:44:45;;;;;;;50.97;25.27;;;;;;;;;;6310517;28;21080;-73
2023/12/22 17:47:47;;;;;;;43.90;19.23;;;;;;;;;;6269773;28;20083;-73
2023/12/22 17:50:50;;;;;;;23.98;15.95;;;;;;;;;;6291784;28;20036;-73
2023/12/22 17:53:53;;;;;;;16.08;11.27;;;;;;;;;;6294139;28;20562;-73